Flight Number: EUR2340 Duration: 3:00
Departure: Antalya (LTAI) at 06:00 Distance: 1080 Nm
Arrival: Munich Int'l (EDDM) at 09:00 Equipment: A321

Weather Information
Antalya, Turkey (LTAI) 36-42N 030-44E 57M Jan 23, 2018 - 04:20 AM EST / 2018.01.23 0920 UTC
Wind: from the NNW (330 degrees) at 18 MPH (16 KT):0
Visibility: greater than 7 mile(s):0
Sky conditions: mostly clear Temperature: 60 F (16 C) Dew Point: 37 F (3 C) Relative Humidity: 41% Pressure (altimeter): 29.71 in. Hg (1006 hPa)
ob: LTAI 230920Z 33016KT 9999 FEW030 16/03 Q1006 NOSIG cycle: 9
Sunrise: 05:08 Sunset: 15:09 (UTC)

Munchen, Germany (EDDM) 48-21N 011-47E Jan 23, 2018 - 04:50 AM EST / 2018.01.23 0950 UTC
Wind: from the WSW (250 degrees) at 9 MPH (8 KT):0
Visibility: greater than 7 mile(s):0
Sky conditions: mostly cloudy Temperature: 39 F (4 C) Dew Point: 33 F (1 C) Relative Humidity: 80% Pressure (altimeter): 30.30 in. Hg (1026 hPa)
ob: EDDM 230950Z 25008KT 9999 FEW025 BKN060 04/01 Q1026 R88/290095 NOSIG cycle: 10
Sunrise: 06:55 Sunset: 15:54 (UTC)

TAF:2018/01/23 06:27 TAF EDDM 230500Z 2306/2412 27009KT 9999 BKN040 BECMG 2314/2316 21003KT

Previous Pireps for this route
Date Aircraft Flight time Fuel used Landing rate On time
2015-01-07A32102.5417912-205Charter
2016-01-18A32103.0616984-2No
2016-04-05A32103.3526587-465.38No
2016-09-30A330-20002.3440823-171Charter
(pireps marked green are flown by you)

Route map